sensor_id;sensor_type;location;lat;lon;timestamp;pressure;altitude;pressure_sealevel;temperature;humidity
36454;BME280;22478;51.740;-1.314;2022-09-09T00:02:01;98978.21;;;10.66;100.00
36454;BME280;22478;51.740;-1.314;2022-09-09T00:04:31;98981.65;;;9.56;100.00
36454;BME280;22478;51.740;-1.314;2022-09-09T00:07:03;98976.95;;;10.03;100.00
36454;BME280;22478;51.740;-1.314;2022-09-09T00:09:40;98978.01;;;9.66;100.00
36454;BME280;22478;51.740;-1.314;2022-09-09T00:12:15;98973.84;;;10.65;100.00
36454;BME280;22478;51.740;-1.314;2022-09-09T00:14:48;98981.23;;;10.36;100.00
36454;BME280;22478;51.740;-1.314;2022-09-09T00:17:26;98979.98;;;10.90;100.00
36454;BME280;22478;51.740;-1.314;2022-09-09T00:20:01;98979.00;;;12.24;100.00
36454;BME280;22478;51.740;-1.314;2022-09-09T00:22:30;98981.43;;;11.17;100.00
36454;BME280;22478;51.740;-1.314;2022-09-09T00:25:08;98986.12;;;10.91;100.00
36454;BME280;22478;51.740;-1.314;2022-09-09T00:27:40;98992.39;;;10.44;100.00
36454;BME280;22478;51.740;-1.314;2022-09-09T00:30:18;98993.57;;;9.36;100.00
36454;BME280;22478;51.740;-1.314;2022-09-09T00:32:46;98997.46;;;9.15;100.00
36454;BME280;22478;51.740;-1.314;2022-09-09T00:35:18;98992.88;;;10.69;100.00
36454;BME280;22478;51.740;-1.314;2022-09-09T00:37:48;99000.55;;;9.33;100.00
36454;BME280;22478;51.740;-1.314;2022-09-09T00:40:23;98991.96;;;10.69;100.00
36454;BME280;22478;51.740;-1.314;2022-09-09T00:42:59;98989.78;;;10.14;100.00
36454;BME280;22478;51.740;-1.314;2022-09-09T00:45:51;98994.95;;;9.14;100.00
36454;BME280;22478;51.740;-1.314;2022-09-09T00:48:21;98995.97;;;10.83;100.00
36454;BME280;22478;51.740;-1.314;2022-09-09T00:50:55;99002.00;;;8.90;100.00
36454;BME280;22478;51.740;-1.314;2022-09-09T00:53:30;98995.86;;;11.85;100.00
36454;BME280;22478;51.740;-1.314;2022-09-09T00:56:11;98996.89;;;9.92;100.00
36454;BME280;22478;51.740;-1.314;2022-09-09T00:58:40;99007.57;;;9.21;100.00
36454;BME280;22478;51.740;-1.314;2022-09-09T01:01:11;99009.93;;;9.09;100.00
36454;BME280;22478;51.740;-1.314;2022-09-09T01:03:44;99004.11;;;10.41;100.00
36454;BME280;22478;51.740;-1.314;2022-09-09T01:06:16;99002.15;;;10.55;100.00
36454;BME280;22478;51.740;-1.314;2022-09-09T01:09:01;99007.90;;;8.13;100.00
36454;BME280;22478;51.740;-1.314;2022-09-09T01:11:36;99008.27;;;9.12;100.00
36454;BME280;22478;51.740;-1.314;2022-09-09T01:14:14;99002.28;;;9.31;100.00
36454;BME280;22478;51.740;-1.314;2022-09-09T01:16:46;99013.87;;;7.79;100.00
36454;BME280;22478;51.740;-1.314;2022-09-09T01:19:19;99001.53;;;9.10;100.00
36454;BME280;22478;51.740;-1.314;2022-09-09T01:22:00;99001.60;;;8.50;100.00
36454;BME280;22478;51.740;-1.314;2022-09-09T01:24:37;99005.76;;;7.95;100.00
36454;BME280;22478;51.740;-1.314;2022-09-09T01:27:06;99015.69;;;6.88;100.00
36454;BME280;22478;51.740;-1.314;2022-09-09T01:29:34;99014.55;;;7.90;100.00
36454;BME280;22478;51.740;-1.314;2022-09-09T01:32:37;99022.89;;;7.68;100.00
36454;BME280;22478;51.740;-1.314;2022-09-09T01:35:06;99020.49;;;7.35;100.00
36454;BME280;22478;51.740;-1.314;2022-09-09T01:37:35;99028.98;;;6.67;100.00
36454;BME280;22478;51.740;-1.314;2022-09-09T01:40:02;99026.62;;;7.63;100.00
36454;BME280;22478;51.740;-1.314;2022-09-09T01:42:29;99014.25;;;9.58;100.00
36454;BME280;22478;51.740;-1.314;2022-09-09T01:44:56;99016.51;;;8.59;100.00
36454;BME280;22478;51.740;-1.314;2022-09-09T01:47:25;99028.80;;;7.95;100.00
36454;BME280;22478;51.740;-1.314;2022-09-09T01:49:52;99036.64;;;8.10;100.00
36454;BME280;22478;51.740;-1.314;2022-09-09T01:52:19;99037.72;;;6.44;100.00
36454;BME280;22478;51.740;-1.314;2022-09-09T01:54:46;99038.29;;;6.91;100.00
36454;BME280;22478;51.740;-1.314;2022-09-09T01:57:20;99040.23;;;7.50;100.00
36454;BME280;22478;51.740;-1.314;2022-09-09T01:59:59;99032.17;;;9.27;100.00
36454;BME280;22478;51.740;-1.314;2022-09-09T02:02:32;99044.08;;;7.96;100.00
36454;BME280;22478;51.740;-1.314;2022-09-09T02:05:10;99040.49;;;7.39;100.00
36454;BME280;22478;51.740;-1.314;2022-09-09T02:07:40;99043.12;;;8.11;100.00
36454;BME280;22478;51.740;-1.314;2022-09-09T02:10:11;99040.15;;;7.78;100.00
36454;BME280;22478;51.740;-1.314;2022-09-09T02:12:42;99040.67;;;7.08;100.00
36454;BME280;22478;51.740;-1.314;2022-09-09T02:15:17;99041.94;;;7.10;100.00
36454;BME280;22478;51.740;-1.314;2022-09-09T02:17:46;99045.04;;;6.62;100.00
36454;BME280;22478;51.740;-1.314;2022-09-09T02:20:15;99044.33;;;7.34;100.00
36454;BME280;22478;51.740;-1.314;2022-09-09T02:22:46;99047.79;;;7.27;100.00
36454;BME280;22478;51.740;-1.314;2022-09-09T02:25:19;99044.05;;;7.28;100.00
36454;BME280;22478;51.740;-1.314;2022-09-09T02:27:49;99046.45;;;7.52;100.00
36454;BME280;22478;51.740;-1.314;2022-09-09T02:30:17;99048.58;;;7.67;100.00
36454;BME280;22478;51.740;-1.314;2022-09-09T02:32:46;99058.38;;;7.33;100.00
36454;BME280;22478;51.740;-1.314;2022-09-09T02:35:17;99070.98;;;6.62;100.00
36454;BME280;22478;51.740;-1.314;2022-09-09T02:37:46;99069.73;;;6.88;100.00
36454;BME280;22478;51.740;-1.314;2022-09-09T02:40:14;99075.73;;;6.50;100.00
36454;BME280;22478;51.740;-1.314;2022-09-09T02:42:44;99070.74;;;6.34;100.00
36454;BME280;22478;51.740;-1.314;2022-09-09T02:45:14;99069.38;;;7.18;100.00
36454;BME280;22478;51.740;-1.314;2022-09-09T02:47:48;99071.26;;;6.88;100.00
36454;BME280;22478;51.740;-1.314;2022-09-09T02:50:20;99080.77;;;6.81;100.00
36454;BME280;22478;51.740;-1.314;2022-09-09T02:53:01;99082.48;;;6.96;100.00
36454;BME280;22478;51.740;-1.314;2022-09-09T02:55:38;99082.87;;;6.76;100.00
36454;BME280;22478;51.740;-1.314;2022-09-09T02:58:07;99078.96;;;7.64;100.00
36454;BME280;22478;51.740;-1.314;2022-09-09T03:00:35;99086.07;;;7.69;100.00
36454;BME280;22478;51.740;-1.314;2022-09-09T03:03:03;99080.10;;;7.73;100.00
36454;BME280;22478;51.740;-1.314;2022-09-09T03:05:31;99085.10;;;7.06;100.00
36454;BME280;22478;51.740;-1.314;2022-09-09T03:07:59;99093.20;;;6.41;100.00
36454;BME280;22478;51.740;-1.314;2022-09-09T03:10:26;99094.46;;;7.55;100.00
36454;BME280;22478;51.740;-1.314;2022-09-09T03:12:53;99090.45;;;6.96;100.00
36454;BME280;22478;51.740;-1.314;2022-09-09T03:15:21;99101.35;;;5.42;100.00
36454;BME280;22478;51.740;-1.314;2022-09-09T03:17:47;99100.12;;;6.79;100.00
36454;BME280;22478;51.740;-1.314;2022-09-09T03:20:14;99098.32;;;6.35;100.00
36454;BME280;22478;51.740;-1.314;2022-09-09T03:22:42;99095.55;;;6.28;100.00
36454;BME280;22478;51.740;-1.314;2022-09-09T03:25:09;99086.31;;;8.04;100.00
36454;BME280;22478;51.740;-1.314;2022-09-09T03:27:36;99084.59;;;6.97;100.00
36454;BME280;22478;51.740;-1.314;2022-09-09T03:30:04;99090.25;;;6.53;100.00
36454;BME280;22478;51.740;-1.314;2022-09-09T03:32:32;99087.94;;;7.47;100.00
36454;BME280;22478;51.740;-1.314;2022-09-09T03:34:59;99094.86;;;6.53;100.00
36454;BME280;22478;51.740;-1.314;2022-09-09T03:37:26;99098.23;;;6.25;100.00
36454;BME280;22478;51.740;-1.314;2022-09-09T03:39:54;99102.02;;;6.79;100.00
36454;BME280;22478;51.740;-1.314;2022-09-09T03:42:21;99100.50;;;6.68;100.00
36454;BME280;22478;51.740;-1.314;2022-09-09T03:44:49;99099.85;;;7.01;100.00
36454;BME280;22478;51.740;-1.314;2022-09-09T03:47:17;99093.99;;;7.12;100.00
36454;BME280;22478;51.740;-1.314;2022-09-09T03:49:44;99093.23;;;7.02;100.00
36454;BME280;22478;51.740;-1.314;2022-09-09T03:52:12;99101.60;;;7.43;100.00
36454;BME280;22478;51.740;-1.314;2022-09-09T03:54:39;99101.26;;;7.05;100.00
36454;BME280;22478;51.740;-1.314;2022-09-09T03:57:06;99100.08;;;6.94;100.00
36454;BME280;22478;51.740;-1.314;2022-09-09T03:59:34;99090.43;;;8.80;100.00
36454;BME280;22478;51.740;-1.314;2022-09-09T04:02:01;99098.87;;;7.22;100.00
36454;BME280;22478;51.740;-1.314;2022-09-09T04:04:29;99098.30;;;8.45;100.00
36454;BME280;22478;51.740;-1.314;2022-09-09T04:06:56;99109.82;;;6.74;100.00
36454;BME280;22478;51.740;-1.314;2022-09-09T04:09:23;99116.39;;;6.96;100.00
36454;BME280;22478;51.740;-1.314;2022-09-09T04:11:50;99117.42;;;8.01;100.00
36454;BME280;22478;51.740;-1.314;2022-09-09T04:14:18;99116.36;;;7.97;100.00
36454;BME280;22478;51.740;-1.314;2022-09-09T04:16:46;99122.21;;;7.24;100.00
36454;BME280;22478;51.740;-1.314;2022-09-09T04:19:13;99123.20;;;7.95;100.00
36454;BME280;22478;51.740;-1.314;2022-09-09T04:21:41;99124.10;;;8.88;100.00
36454;BME280;22478;51.740;-1.314;2022-09-09T04:24:09;99125.79;;;7.91;100.00
36454;BME280;22478;51.740;-1.314;2022-09-09T04:26:37;99127.51;;;6.66;100.00
36454;BME280;22478;51.740;-1.314;2022-09-09T04:29:04;99135.78;;;7.15;100.00
36454;BME280;22478;51.740;-1.314;2022-09-09T04:31:32;99139.03;;;6.31;100.00
36454;BME280;22478;51.740;-1.314;2022-09-09T04:34:00;99141.91;;;6.43;100.00
36454;BME280;22478;51.740;-1.314;2022-09-09T04:36:27;99144.07;;;7.44;100.00
36454;BME280;22478;51.740;-1.314;2022-09-09T04:38:53;99145.51;;;6.32;100.00
36454;BME280;22478;51.740;-1.314;2022-09-09T04:41:20;99144.70;;;6.83;100.00
36454;BME280;22478;51.740;-1.314;2022-09-09T04:43:48;99145.82;;;5.90;100.00
36454;BME280;22478;51.740;-1.314;2022-09-09T04:46:15;99135.01;;;7.63;100.00
36454;BME280;22478;51.740;-1.314;2022-09-09T04:48:42;99150.43;;;6.28;100.00
36454;BME280;22478;51.740;-1.314;2022-09-09T04:51:12;99155.91;;;6.19;100.00
36454;BME280;22478;51.740;-1.314;2022-09-09T04:53:40;99163.42;;;5.54;100.00
36454;BME280;22478;51.740;-1.314;2022-09-09T04:56:09;99159.49;;;6.77;100.00
36454;BME280;22478;51.740;-1.314;2022-09-09T04:58:37;99156.06;;;6.38;100.00
36454;BME280;22478;51.740;-1.314;2022-09-09T05:01:06;99158.45;;;6.24;100.00
36454;BME280;22478;51.740;-1.314;2022-09-09T05:03:33;99158.41;;;6.79;100.00
36454;BME280;22478;51.740;-1.314;2022-09-09T05:06:05;99156.47;;;6.67;100.00
36454;BME280;22478;51.740;-1.314;2022-09-09T05:08:33;99155.70;;;7.34;100.00
36454;BME280;22478;51.740;-1.314;2022-09-09T05:11:00;99152.17;;;7.10;100.00
36454;BME280;22478;51.740;-1.314;2022-09-09T05:13:27;99156.87;;;7.20;100.00
36454;BME280;22478;51.740;-1.314;2022-09-09T05:15:54;99158.17;;;6.89;100.00
36454;BME280;22478;51.740;-1.314;2022-09-09T05:18:22;99154.71;;;9.20;100.00
36454;BME280;22478;51.740;-1.314;2022-09-09T05:20:49;99161.64;;;7.00;100.00
36454;BME280;22478;51.740;-1.314;2022-09-09T05:23:16;99163.88;;;7.00;100.00
36454;BME280;22478;51.740;-1.314;2022-09-09T05:25:43;99171.35;;;7.26;100.00
36454;BME280;22478;51.740;-1.314;2022-09-09T05:28:11;99164.13;;;8.03;100.00
36454;BME280;22478;51.740;-1.314;2022-09-09T05:30:38;99173.40;;;7.25;100.00
36454;BME280;22478;51.740;-1.314;2022-09-09T05:33:05;99169.49;;;6.69;100.00
36454;BME280;22478;51.740;-1.314;2022-09-09T05:35:33;99174.87;;;6.76;100.00
36454;BME280;22478;51.740;-1.314;2022-09-09T05:38:00;99185.19;;;6.38;100.00
36454;BME280;22478;51.740;-1.314;2022-09-09T05:40:28;99180.38;;;6.93;100.00
36454;BME280;22478;51.740;-1.314;2022-09-09T05:42:58;99182.54;;;5.82;100.00
36454;BME280;22478;51.740;-1.314;2022-09-09T05:45:26;99180.17;;;7.37;100.00
36454;BME280;22478;51.740;-1.314;2022-09-09T05:47:53;99170.67;;;9.49;100.00
36454;BME280;22478;51.740;-1.314;2022-09-09T05:50:21;99160.96;;;10.88;100.00
36454;BME280;22478;51.740;-1.314;2022-09-09T05:52:48;99165.32;;;9.97;100.00
36454;BME280;22478;51.740;-1.314;2022-09-09T05:55:15;99166.51;;;10.88;100.00
36454;BME280;22478;51.740;-1.314;2022-09-09T05:57:48;99164.86;;;12.04;100.00
36454;BME280;22478;51.740;-1.314;2022-09-09T06:00:15;99169.05;;;11.28;100.00
36454;BME280;22478;51.740;-1.314;2022-09-09T06:02:42;99175.17;;;9.87;100.00
36454;BME280;22478;51.740;-1.314;2022-09-09T06:05:10;99176.21;;;10.77;100.00
36454;BME280;22478;51.740;-1.314;2022-09-09T06:07:37;99188.56;;;9.73;100.00
36454;BME280;22478;51.740;-1.314;2022-09-09T06:10:05;99183.91;;;9.71;100.00
36454;BME280;22478;51.740;-1.314;2022-09-09T06:12:32;99183.93;;;9.85;100.00
36454;BME280;22478;51.740;-1.314;2022-09-09T06:14:59;99187.50;;;10.29;100.00
36454;BME280;22478;51.740;-1.314;2022-09-09T06:17:26;99192.49;;;9.98;100.00
36454;BME280;22478;51.740;-1.314;2022-09-09T06:19:53;99205.02;;;6.49;100.00
36454;BME280;22478;51.740;-1.314;2022-09-09T06:22:21;99203.97;;;8.91;100.00
36454;BME280;22478;51.740;-1.314;2022-09-09T06:24:48;99204.54;;;7.71;100.00
36454;BME280;22478;51.740;-1.314;2022-09-09T06:27:14;99204.71;;;9.99;100.00
36454;BME280;22478;51.740;-1.314;2022-09-09T06:29:42;99201.01;;;10.54;100.00
36454;BME280;22478;51.740;-1.314;2022-09-09T06:32:09;99208.85;;;8.73;100.00
36454;BME280;22478;51.740;-1.314;2022-09-09T06:34:36;99213.47;;;8.77;100.00
36454;BME280;22478;51.740;-1.314;2022-09-09T06:37:03;99215.30;;;9.12;100.00
36454;BME280;22478;51.740;-1.314;2022-09-09T06:39:30;99222.96;;;8.82;100.00
36454;BME280;22478;51.740;-1.314;2022-09-09T06:41:57;99226.21;;;8.23;100.00
36454;BME280;22478;51.740;-1.314;2022-09-09T06:44:24;99228.57;;;8.38;100.00
36454;BME280;22478;51.740;-1.314;2022-09-09T06:46:52;99230.29;;;8.30;100.00
36454;BME280;22478;51.740;-1.314;2022-09-09T06:49:20;99240.99;;;7.00;100.00
36454;BME280;22478;51.740;-1.314;2022-09-09T06:51:47;99231.22;;;9.00;100.00
36454;BME280;22478;51.740;-1.314;2022-09-09T06:54:15;99234.34;;;8.88;100.00
36454;BME280;22478;51.740;-1.314;2022-09-09T06:56:42;99248.84;;;7.58;100.00
36454;BME280;22478;51.740;-1.314;2022-09-09T06:59:11;99241.46;;;7.58;100.00
36454;BME280;22478;51.740;-1.314;2022-09-09T07:01:40;99244.64;;;8.02;100.00
36454;BME280;22478;51.740;-1.314;2022-09-09T07:04:08;99258.66;;;6.58;100.00
36454;BME280;22478;51.740;-1.314;2022-09-09T07:06:37;99254.35;;;7.36;100.00
36454;BME280;22478;51.740;-1.314;2022-09-09T07:09:06;99254.26;;;7.57;100.00
36454;BME280;22478;51.740;-1.314;2022-09-09T07:11:36;99265.78;;;6.73;100.00
36454;BME280;22478;51.740;-1.314;2022-09-09T07:14:04;99258.96;;;7.30;100.00
36454;BME280;22478;51.740;-1.314;2022-09-09T07:16:31;99257.72;;;7.09;100.00
36454;BME280;22478;51.740;-1.314;2022-09-09T07:18:59;99267.42;;;6.74;100.00
36454;BME280;22478;51.740;-1.314;2022-09-09T07:21:28;99271.24;;;6.73;100.00
36454;BME280;22478;51.740;-1.314;2022-09-09T07:23:56;99273.77;;;5.90;100.00
36454;BME280;22478;51.740;-1.314;2022-09-09T07:26:24;99260.83;;;8.73;100.00
36454;BME280;22478;51.740;-1.314;2022-09-09T07:28:52;99261.23;;;7.49;100.00
36454;BME280;22478;51.740;-1.314;2022-09-09T07:31:21;99280.00;;;6.89;100.00
36454;BME280;22478;51.740;-1.314;2022-09-09T07:33:50;99279.35;;;6.72;100.00
36454;BME280;22478;51.740;-1.314;2022-09-09T07:36:19;99285.59;;;6.79;100.00
36454;BME280;22478;51.740;-1.314;2022-09-09T07:38:48;99295.21;;;6.93;100.00
36454;BME280;22478;51.740;-1.314;2022-09-09T07:41:18;99288.68;;;7.65;100.00
36454;BME280;22478;51.740;-1.314;2022-09-09T07:43:48;99288.73;;;7.51;100.00
36454;BME280;22478;51.740;-1.314;2022-09-09T07:46:18;99284.32;;;7.33;100.00
36454;BME280;22478;51.740;-1.314;2022-09-09T07:48:47;99296.04;;;7.20;100.00
36454;BME280;22478;51.740;-1.314;2022-09-09T07:51:16;99296.94;;;6.98;100.00
36454;BME280;22478;51.740;-1.314;2022-09-09T07:53:44;99291.16;;;7.79;100.00
36454;BME280;22478;51.740;-1.314;2022-09-09T07:56:15;99297.42;;;7.19;100.00
36454;BME280;22478;51.740;-1.314;2022-09-09T07:58:45;99303.47;;;6.96;100.00
36454;BME280;22478;51.740;-1.314;2022-09-09T08:01:15;99303.03;;;6.99;100.00
36454;BME280;22478;51.740;-1.314;2022-09-09T08:03:42;99302.03;;;7.39;100.00
36454;BME280;22478;51.740;-1.314;2022-09-09T08:06:10;99303.52;;;7.52;100.00
36454;BME280;22478;51.740;-1.314;2022-09-09T08:08:38;99305.26;;;7.46;100.00
36454;BME280;22478;51.740;-1.314;2022-09-09T08:11:08;99304.27;;;7.31;100.00
36454;BME280;22478;51.740;-1.314;2022-09-09T08:13:37;99299.76;;;9.19;100.00
36454;BME280;22478;51.740;-1.314;2022-09-09T08:16:07;99307.28;;;7.00;100.00
36454;BME280;22478;51.740;-1.314;2022-09-09T08:18:35;99317.05;;;6.84;100.00
36454;BME280;22478;51.740;-1.314;2022-09-09T08:21:07;99321.65;;;6.87;100.00
36454;BME280;22478;51.740;-1.314;2022-09-09T08:23:36;99312.05;;;8.72;100.00
36454;BME280;22478;51.740;-1.314;2022-09-09T08:26:04;99320.89;;;8.33;100.00
36454;BME280;22478;51.740;-1.314;2022-09-09T08:28:32;99323.20;;;7.36;100.00
36454;BME280;22478;51.740;-1.314;2022-09-09T08:31:10;99324.23;;;7.66;100.00
36454;BME280;22478;51.740;-1.314;2022-09-09T08:33:38;99333.02;;;6.28;100.00
36454;BME280;22478;51.740;-1.314;2022-09-09T08:36:06;99328.09;;;8.08;100.00
36454;BME280;22478;51.740;-1.314;2022-09-09T08:38:35;99334.30;;;7.74;100.00
36454;BME280;22478;51.740;-1.314;2022-09-09T08:41:16;99330.88;;;7.52;100.00
36454;BME280;22478;51.740;-1.314;2022-09-09T08:43:47;99334.38;;;8.25;100.00
36454;BME280;22478;51.740;-1.314;2022-09-09T08:46:23;99339.54;;;7.86;100.00
36454;BME280;22478;51.740;-1.314;2022-09-09T08:48:56;99342.64;;;6.99;100.00
36454;BME280;22478;51.740;-1.314;2022-09-09T08:51:27;99350.42;;;6.84;100.00
36454;BME280;22478;51.740;-1.314;2022-09-09T08:53:59;99348.30;;;7.85;100.00
36454;BME280;22478;51.740;-1.314;2022-09-09T08:56:31;99360.46;;;8.10;100.00
36454;BME280;22478;51.740;-1.314;2022-09-09T08:59:00;99357.55;;;8.57;100.00
36454;BME280;22478;51.740;-1.314;2022-09-09T09:01:40;99362.58;;;7.68;100.00
36454;BME280;22478;51.740;-1.314;2022-09-09T09:04:20;99370.91;;;7.83;100.00
36454;BME280;22478;51.740;-1.314;2022-09-09T09:06:54;99369.93;;;8.82;100.00
36454;BME280;22478;51.740;-1.314;2022-09-09T09:09:33;99367.71;;;9.55;100.00
36454;BME280;22478;51.740;-1.314;2022-09-09T09:12:12;99381.03;;;7.77;100.00
36454;BME280;22478;51.740;-1.314;2022-09-09T09:14:43;99376.70;;;8.97;100.00
36454;BME280;22478;51.740;-1.314;2022-09-09T09:17:14;99382.56;;;8.45;100.00
36454;BME280;22478;51.740;-1.314;2022-09-09T09:19:44;99383.67;;;8.24;100.00
36454;BME280;22478;51.740;-1.314;2022-09-09T09:22:17;99385.38;;;8.50;100.00
36454;BME280;22478;51.740;-1.314;2022-09-09T09:24:51;99389.04;;;8.63;100.00
36454;BME280;22478;51.740;-1.314;2022-09-09T09:27:35;99395.10;;;8.76;100.00
36454;BME280;22478;51.740;-1.314;2022-09-09T09:30:13;99394.04;;;8.23;100.00
36454;BME280;22478;51.740;-1.314;2022-09-09T09:32:46;99402.70;;;7.66;100.00
36454;BME280;22478;51.740;-1.314;2022-09-09T09:35:16;99407.37;;;8.38;100.00
36454;BME280;22478;51.740;-1.314;2022-09-09T09:37:43;99409.66;;;7.88;100.00
36454;BME280;22478;51.740;-1.314;2022-09-09T09:40:10;99410.98;;;8.17;100.00
36454;BME280;22478;51.740;-1.314;2022-09-09T09:42:38;99410.77;;;8.41;100.00
36454;BME280;22478;51.740;-1.314;2022-09-09T09:45:18;99415.74;;;8.59;100.00
36454;BME280;22478;51.740;-1.314;2022-09-09T09:47:58;99416.32;;;7.71;100.00
36454;BME280;22478;51.740;-1.314;2022-09-09T09:50:26;99425.34;;;7.47;100.00
36454;BME280;22478;51.740;-1.314;2022-09-09T09:52:55;99426.16;;;8.08;100.00
36454;BME280;22478;51.740;-1.314;2022-09-09T09:55:23;99426.39;;;8.36;100.00
36454;BME280;22478;51.740;-1.314;2022-09-09T09:57:51;99430.84;;;8.94;100.00
36454;BME280;22478;51.740;-1.314;2022-09-09T10:00:20;99434.08;;;8.12;100.00
36454;BME280;22478;51.740;-1.314;2022-09-09T10:02:48;99432.01;;;8.62;100.00
36454;BME280;22478;51.740;-1.314;2022-09-09T10:05:18;99435.97;;;8.79;100.00
36454;BME280;22478;51.740;-1.314;2022-09-09T10:07:47;99435.41;;;11.35;100.00
36454;BME280;22478;51.740;-1.314;2022-09-09T10:10:36;99439.90;;;8.49;100.00
36454;BME280;22478;51.740;-1.314;2022-09-09T10:13:13;99438.63;;;8.53;100.00
36454;BME280;22478;51.740;-1.314;2022-09-09T10:15:47;99440.94;;;7.52;100.00
36454;BME280;22478;51.740;-1.314;2022-09-09T10:18:30;99445.32;;;9.49;100.00
36454;BME280;22478;51.740;-1.314;2022-09-09T10:21:10;99439.94;;;8.67;100.00
36454;BME280;22478;51.740;-1.314;2022-09-09T10:23:50;99438.41;;;9.59;100.00
36454;BME280;22478;51.740;-1.314;2022-09-09T10:26:33;99445.47;;;9.57;100.00
36454;BME280;22478;51.740;-1.314;2022-09-09T10:29:15;99449.44;;;9.14;100.00
36454;BME280;22478;51.740;-1.314;2022-09-09T10:31:54;99452.11;;;9.09;100.00
36454;BME280;22478;51.740;-1.314;2022-09-09T10:34:42;99452.05;;;9.44;100.00
36454;BME280;22478;51.740;-1.314;2022-09-09T10:37:20;99458.78;;;8.17;100.00
36454;BME280;22478;51.740;-1.314;2022-09-09T10:39:54;99460.25;;;8.36;100.00
36454;BME280;22478;51.740;-1.314;2022-09-09T10:42:31;99459.67;;;9.35;100.00
36454;BME280;22478;51.740;-1.314;2022-09-09T10:45:09;99464.22;;;8.51;100.00
36454;BME280;22478;51.740;-1.314;2022-09-09T10:47:55;99458.02;;;10.29;100.00
36454;BME280;22478;51.740;-1.314;2022-09-09T10:50:44;99454.83;;;10.03;100.00
36454;BME280;22478;51.740;-1.314;2022-09-09T10:53:20;99454.14;;;11.66;100.00
36454;BME280;22478;51.740;-1.314;2022-09-09T10:55:53;99454.76;;;12.22;100.00
36454;BME280;22478;51.740;-1.314;2022-09-09T10:58:28;99448.85;;;10.26;100.00
36454;BME280;22478;51.740;-1.314;2022-09-09T11:01:00;99451.05;;;10.78;100.00
36454;BME280;22478;51.740;-1.314;2022-09-09T11:03:29;99448.35;;;11.49;100.00
36454;BME280;22478;51.740;-1.314;2022-09-09T11:06:00;99447.11;;;11.62;100.00
36454;BME280;22478;51.740;-1.314;2022-09-09T11:08:32;99451.05;;;10.55;100.00
36454;BME280;22478;51.740;-1.314;2022-09-09T11:11:03;99450.09;;;10.04;100.00
36454;BME280;22478;51.740;-1.314;2022-09-09T11:13:37;99448.73;;;10.22;100.00
36454;BME280;22478;51.740;-1.314;2022-09-09T11:16:21;99451.88;;;11.49;100.00
36454;BME280;22478;51.740;-1.314;2022-09-09T11:18:49;99458.98;;;11.84;100.00
36454;BME280;22478;51.740;-1.314;2022-09-09T11:21:21;99461.36;;;10.99;100.00
36454;BME280;22478;51.740;-1.314;2022-09-09T11:23:54;99458.66;;;11.46;100.00
36454;BME280;22478;51.740;-1.314;2022-09-09T11:26:30;99456.07;;;11.99;100.00
36454;BME280;22478;51.740;-1.314;2022-09-09T11:29:13;99463.27;;;10.45;100.00
36454;BME280;22478;51.740;-1.314;2022-09-09T11:31:51;99462.86;;;10.96;100.00
36454;BME280;22478;51.740;-1.314;2022-09-09T11:34:34;99465.02;;;9.91;100.00
36454;BME280;22478;51.740;-1.314;2022-09-09T11:37:14;99463.15;;;10.23;100.00
36454;BME280;22478;51.740;-1.314;2022-09-09T11:39:55;99468.90;;;10.38;100.00
36454;BME280;22478;51.740;-1.314;2022-09-09T11:42:27;99466.03;;;11.09;100.00
36454;BME280;22478;51.740;-1.314;2022-09-09T11:44:55;99462.47;;;11.18;100.00
36454;BME280;22478;51.740;-1.314;2022-09-09T11:47:24;99461.43;;;10.34;100.00
36454;BME280;22478;51.740;-1.314;2022-09-09T11:49:52;99458.09;;;12.56;100.00
36454;BME280;22478;51.740;-1.314;2022-09-09T11:52:22;99452.01;;;15.11;100.00
36454;BME280;22478;51.740;-1.314;2022-09-09T11:54:50;99450.93;;;14.79;100.00
36454;BME280;22478;51.740;-1.314;2022-09-09T11:57:25;99449.02;;;14.78;100.00
36454;BME280;22478;51.740;-1.314;2022-09-09T11:59:55;99451.01;;;16.43;100.00
36454;BME280;22478;51.740;-1.314;2022-09-09T12:02:24;99460.74;;;14.29;100.00
36454;BME280;22478;51.740;-1.314;2022-09-09T12:04:58;99462.56;;;13.23;100.00
36454;BME280;22478;51.740;-1.314;2022-09-09T12:07:32;99467.97;;;12.87;100.00
36454;BME280;22478;51.740;-1.314;2022-09-09T12:10:05;99475.57;;;12.13;100.00
36454;BME280;22478;51.740;-1.314;2022-09-09T12:12:34;99476.24;;;12.30;100.00
36454;BME280;22478;51.740;-1.314;2022-09-09T12:15:21;99484.96;;;11.17;100.00
36454;BME280;22478;51.740;-1.314;2022-09-09T12:17:50;99472.48;;;13.70;100.00
36454;BME280;22478;51.740;-1.314;2022-09-09T12:20:20;99475.45;;;12.13;100.00
36454;BME280;22478;51.740;-1.314;2022-09-09T12:22:59;99471.77;;;13.70;100.00
36454;BME280;22478;51.740;-1.314;2022-09-09T12:25:39;99461.00;;;15.10;100.00
36454;BME280;22478;51.740;-1.314;2022-09-09T12:28:17;99462.05;;;15.02;100.00
36454;BME280;22478;51.740;-1.314;2022-09-09T12:30:49;99461.84;;;15.03;100.00
36454;BME280;22478;51.740;-1.314;2022-09-09T12:33:20;99459.09;;;15.80;100.00
36454;BME280;22478;51.740;-1.314;2022-09-09T12:35:53;99461.83;;;14.99;100.00
36454;BME280;22478;51.740;-1.314;2022-09-09T12:38:27;99469.12;;;14.28;100.00
36454;BME280;22478;51.740;-1.314;2022-09-09T12:40:58;99474.22;;;13.51;100.00
36454;BME280;22478;51.740;-1.314;2022-09-09T12:43:26;99469.14;;;14.55;100.00
36454;BME280;22478;51.740;-1.314;2022-09-09T12:45:56;99477.94;;;12.19;100.00
36454;BME280;22478;51.740;-1.314;2022-09-09T12:48:30;99482.46;;;12.24;100.00
36454;BME280;22478;51.740;-1.314;2022-09-09T12:50:58;99478.93;;;13.37;100.00
36454;BME280;22478;51.740;-1.314;2022-09-09T12:53:28;99477.85;;;12.97;100.00
36454;BME280;22478;51.740;-1.314;2022-09-09T12:55:58;99471.90;;;13.67;100.00
36454;BME280;22478;51.740;-1.314;2022-09-09T12:58:26;99472.09;;;12.34;100.00
36454;BME280;22478;51.740;-1.314;2022-09-09T13:00:55;99483.68;;;10.70;100.00
36454;BME280;22478;51.740;-1.314;2022-09-09T13:03:23;99480.99;;;12.03;100.00
36454;BME280;22478;51.740;-1.314;2022-09-09T13:05:52;99474.81;;;12.02;100.00
36454;BME280;22478;51.740;-1.314;2022-09-09T13:08:20;99474.15;;;13.89;100.00